Thursday, September 20, 2018, 1:02 PM EDT
Back to Local

KFIT, Fitchburg, Fitchburg Municipal Airport

Location: Leominster, MA, United States Lat: 42.552
Local Time: 1:02 PM EDT (17:02 GMT) Lon: -71.756
Time Zone: US/Eastern Elev: 347 ft

Show me the last for .
Show Decoded

2018-09-20 11:52 METAR KFIT 201552Z AUTO 04004KT 10SM FEW030 SCT042 17/12 A3029 RMK AO2 SLP256
                 T01720117 =
2018-09-20 11:28 METAR KFIT 201528Z AUTO 35005KT 10SM FEW021 BKN030 OVC045 17/12 A3029 RMK AO2
                 T01670117 =
2018-09-20 10:52 METAR KFIT 201452Z AUTO VRB05KT 10SM BKN021 OVC025 16/12 A3029 RMK AO2 SLP259
                 T01610117 51020 =
2018-09-20 09:52 METAR KFIT 201352Z AUTO 04007KT 10SM OVC022 16/11 A3029 RMK AO2 SLP257 T01560111
                 =
2018-09-20 08:52 METAR KFIT 201252Z AUTO VRB04KT 10SM OVC022 14/12 A3026 RMK AO2 SLP247 T01440122
                 =
2018-09-20 08:18 METAR KFIT 201218Z AUTO 06005KT 9SM FEW009 OVC022 14/12 A3024 RMK AO2 T01390122
                 =
2018-09-20 07:52 METAR KFIT 201152Z AUTO 00000KT 10SM FEW012 FEW019 OVC024 14/13 A3023 RMK AO2
                 RAB40E50 SLP239 P0000 60000 T01390128 10144 20139 53022 =
2018-09-20 06:52 METAR KFIT 201052Z AUTO 00000KT 9SM SCT010 OVC023 14/12 A3020 RMK AO2 RAB31E43
                 SLP229 P0000 T01390122 =
2018-09-20 05:52 METAR KFIT 200952Z AUTO 35004KT 10SM BKN013 OVC018 14/13 A3018 RMK AO2 SLP220
                 T01390128 =
2018-09-20 05:18 METAR KFIT 200918Z AUTO 35003KT 10SM OVC013 14/12 A3017 RMK AO2 T01390122 =
2018-09-20 04:52 METAR KFIT 200852Z AUTO 01004KT 10SM OVC015 14/12 A3017 RMK AO2 SLP216 T01390122
                 51009 =
2018-09-20 03:52 METAR KFIT 200752Z AUTO 36005KT 10SM OVC017 14/12 A3016 RMK AO2 SLP213 T01440122
                 =
2018-09-20 02:52 METAR KFIT 200652Z AUTO 33005KT 10SM FEW012 OVC020 14/13 A3016 RMK AO2 SLP213
                 T01440128 =
2018-09-20 02:25 METAR KFIT 200625Z AUTO 35004KT 10SM BKN023 OVC055 14/12 A3015 RMK AO2 T01440122
                 =
2018-09-20 02:09 METAR KFIT 200609Z AUTO 02003KT 10SM SCT023 OVC055 14/12 A3014 RMK AO2 T01440122
                 =
2018-09-20 01:52 METAR KFIT 200552Z AUTO 02004KT 10SM BKN022 BKN047 OVC055 14/12 A3014 RMK AO2
                 SLP206 60000 T01440122 10150 20144 51001 =
2018-09-20 01:40 METAR KFIT 200540Z AUTO VRB04KT 10SM BKN022 OVC049 14/12 A3014 RMK AO2 T01440122
                 =
2018-09-20 00:52 METAR KFIT 200452Z AUTO 01003KT 10SM SCT021 BKN040 OVC047 14/13 A3014 RMK AO2
                 SLP206 T01440128 401940144 =
2018-09-20 00:43 METAR KFIT 200443Z AUTO 01003KT 10SM BKN021 OVC039 15/13 A3014 RMK AO2 T01500133
                 =
2018-09-20 00:13 METAR KFIT 200413Z AUTO 32004KT 10SM SCT025 BKN038 OVC046 15/13 A3014 RMK AO2
                 T01500133 =
2018-09-19 23:52 METAR KFIT 200352Z AUTO 32005KT 10SM BKN024 OVC034 14/13 A3014 RMK AO2 SLP205
                 T01440133 =
2018-09-19 22:52 METAR KFIT 200252Z AUTO 00000KT 10SM FEW017 SCT022 OVC032 15/13 A3012 RMK AO2
                 SLP198 60000 T01500133 51016 =
2018-09-19 22:27 METAR KFIT 200227Z AUTO 00000KT 10SM OVC030 15/13 A3012 RMK AO2 T01500133 =
2018-09-19 22:15 METAR KFIT 200215Z AUTO 00000KT 10SM SCT008 BKN026 OVC033 15/13 A3012 RMK AO2
                 T01500133 =
2018-09-19 21:52 METAR KFIT 200152Z AUTO 00000KT 10SM OVC009 15/13 A3012 RMK AO2 CIG 006V012
                 SLP198 T01500133 =
2018-09-19 21:40 METAR KFIT 200140Z AUTO 06003KT 10SM BKN008 OVC031 15/14 A3011 RMK AO2 CIG
                 006V011 T01500139 =
2018-09-19 21:29 METAR KFIT 200129Z AUTO VRB03KT 10SM SCT009 SCT012 OVC029 15/13 A3010 RMK AO2
                 T01500133 =
2018-09-19 20:52 METAR KFIT 200052Z AUTO 05003KT 9SM FEW011 BKN019 OVC024 15/14 A3011 RMK AO2
                 RAB11E23 SLP196 P0000 T01500139 =
2018-09-19 20:38 METAR KFIT 200038Z AUTO 05004KT 8SM SCT012 OVC019 15/14 A3009 RMK AO2 RAB11E23
                 P0000 T01500139 =
2018-09-19 20:18 METAR KFIT 200018Z AUTO 10006KT 6SM -RA BR BKN014 OVC019 16/14 A3008 RMK AO2
                 RAB11 P0000 T01610139 =
2018-09-19 19:52 METAR KFIT 192352Z AUTO 05003KT 10SM OVC018 16/14 A3007 RMK AO2 SLP182 T01610139
                 10172 20161 51021 =
2018-09-19 18:52 METAR KFIT 192252Z AUTO 08003KT 10SM BKN019 OVC028 17/14 A3005 RMK AO2 SLP175
                 T01670144 =
2018-09-19 17:52 METAR KFIT 192152Z AUTO 10004KT 10SM FEW011 OVC019 17/14 A3003 RMK AO2 SLP170
                 T01670144 =
2018-09-19 16:52 METAR KFIT 192052Z AUTO 00000KT 10SM OVC010 17/14 A3001 RMK AO2 CIG 008V014
                 SLP161 T01670144 53008 =
2018-09-19 16:19 METAR KFIT 192019Z AUTO 06005KT 10SM BKN010 OVC015 17/14 A2999 RMK AO2 T01720144
                 =
2018-09-19 15:52 METAR KFIT 191952Z AUTO 07003KT 10SM OVC009 17/14 A2999 RMK AO2 SLP156 T01720144
                 =
2018-09-19 15:39 METAR KFIT 191939Z AUTO 05003KT 10SM OVC009 17/14 A2999 RMK AO2 T01720144 =
2018-09-19 14:52 METAR KFIT 191852Z AUTO 05004KT 10SM BKN010 OVC014 17/14 A2998 RMK AO2 CIG
                 008V011 SLP153 T01720144 =
2018-09-19 14:06 METAR KFIT 191806Z AUTO 05006KT 6SM BR OVC009 17/15 A2998 RMK AO2 T01720150 =
2018-09-19 13:52 METAR KFIT 191752Z AUTO 06003KT 9SM OVC010 17/15 A2998 RMK AO2 SLP153 T01720150
                 10183 20156 50004 =

Support USWX by starting your Amazon purchase here.